Time;durP1;ratioP1;P1;durP2;ratioP2;P2;SDS_P1;SDS_P2;PMS_P1;PMS_P2;Temp;Humidity;BMP_temperature;BMP_pressure;BME280_temperature;BME280_humidity;BME280_pressure;Samples;Min_cycle;Max_cycle;Signal;HPM_P1;HPM_P2
2021/09/11 00:00:36;;;;;;;8.40;7.23;;;20.70;99.90;;;;;;4990595;28;20267;-70
2021/09/11 00:03:02;;;;;;;10.23;7.97;;;20.60;99.90;;;;;;4980500;28;20231;-70
2021/09/11 00:05:27;;;;;;;7.50;6.27;;;20.60;99.90;;;;;;5009961;28;20225;-70
2021/09/11 00:07:54;;;;;;;7.70;6.80;;;20.60;99.90;;;;;;5009541;28;20217;-69
2021/09/11 00:10:20;;;;;;;8.47;7.60;;;20.50;99.90;;;;;;5009914;28;20236;-69
2021/09/11 00:12:47;;;;;;;7.83;7.03;;;20.50;99.90;;;;;;5008371;28;20482;-70
2021/09/11 00:15:17;;;;;;;9.43;8.43;;;20.50;99.90;;;;;;4993074;28;20447;-70
2021/09/11 00:17:43;;;;;;;8.23;7.43;;;20.40;99.90;;;;;;4993492;28;20456;-70
2021/09/11 00:20:10;;;;;;;8.40;7.30;;;20.40;99.90;;;;;;4990515;28;20969;-70
2021/09/11 00:22:37;;;;;;;7.30;6.57;;;20.40;99.90;;;;;;5015468;28;20468;-70
2021/09/11 00:25:04;;;;;;;7.87;7.07;;;20.40;99.90;;;;;;5009199;28;20460;-70
2021/09/11 00:27:30;;;;;;;8.03;7.23;;;20.40;99.90;;;;;;4993268;28;20592;-70
2021/09/11 00:29:56;;;;;;;7.53;6.73;;;20.40;99.90;;;;;;4991983;28;20571;-70
2021/09/11 00:32:21;;;;;;;9.53;7.50;;;20.40;99.90;;;;;;4992607;28;20220;-70
2021/09/11 00:34:47;;;;;;;9.50;7.00;;;20.40;99.90;;;;;;5023425;28;20223;-70
2021/09/11 00:37:13;;;;;;;8.50;7.70;;;20.40;99.90;;;;;;5028965;28;20239;-69
2021/09/11 00:39:38;;;;;;;7.77;6.93;;;20.30;99.90;;;;;;4998620;28;20593;-70
2021/09/11 00:42:04;;;;;;;8.60;7.70;;;20.30;99.90;;;;;;5008317;28;20679;-70
2021/09/11 00:44:30;;;;;;;7.80;7.00;;;20.30;99.90;;;;;;4992645;28;20224;-70
2021/09/11 00:46:56;;;;;;;8.03;7.23;;;20.20;99.90;;;;;;5008944;28;20459;-70
2021/09/11 00:49:22;;;;;;;8.50;7.70;;;20.20;99.90;;;;;;5009435;28;20821;-70
2021/09/11 00:51:48;;;;;;;8.80;7.90;;;20.20;99.90;;;;;;4992090;28;20217;-69
2021/09/11 00:54:15;;;;;;;8.70;7.80;;;20.20;99.90;;;;;;5008271;28;20296;-70
2021/09/11 00:56:40;;;;;;;7.63;6.93;;;20.20;99.90;;;;;;5006380;28;20938;-69
2021/09/11 01:01:48;;;;;;;11.40;8.80;;;20.20;99.90;;;;;;6077180;22;20284;-72
2021/09/11 01:04:14;;;;;;;10.57;8.60;;;20.10;99.90;;;;;;4997265;28;20461;-71
2021/09/11 01:06:39;;;;;;;9.13;8.03;;;20.10;99.90;;;;;;5007987;28;20227;-71
2021/09/11 01:09:05;;;;;;;8.37;7.40;;;20.00;99.90;;;;;;4999639;28;20304;-70
2021/09/11 01:11:33;;;;;;;9.07;8.17;;;20.00;99.90;;;;;;4978988;28;20215;-70
2021/09/11 01:13:59;;;;;;;10.63;8.47;;;20.00;99.90;;;;;;4972883;28;20214;-70
2021/09/11 01:16:25;;;;;;;8.47;7.60;;;20.00;99.90;;;;;;4989643;28;20541;-71
2021/09/11 01:18:51;;;;;;;8.80;7.90;;;19.90;99.90;;;;;;4988917;28;20206;-70
2021/09/11 01:21:16;;;;;;;7.37;6.70;;;19.90;99.90;;;;;;4973350;28;20820;-70
2021/09/11 01:23:42;;;;;;;8.60;7.80;;;19.90;99.90;;;;;;4995041;28;20281;-71
2021/09/11 01:26:12;;;;;;;7.67;6.87;;;19.90;99.90;;;;;;4989076;28;20218;-70
2021/09/11 01:28:38;;;;;;;8.37;7.47;;;19.90;99.90;;;;;;4988677;28;20278;-71
2021/09/11 01:31:04;;;;;;;9.63;7.37;;;19.90;99.90;;;;;;4988927;28;20569;-70
2021/09/11 01:33:30;;;;;;;7.70;7.00;;;20.00;99.90;;;;;;4972220;28;20234;-70
2021/09/11 01:35:55;;;;;;;8.40;7.43;;;20.00;99.90;;;;;;4979634;28;20464;-70
2021/09/11 01:38:22;;;;;;;8.43;7.60;;;20.00;99.90;;;;;;4992740;28;20588;-70
2021/09/11 01:40:48;;;;;;;9.30;7.67;;;20.00;99.90;;;;;;4980422;28;20229;-70
2021/09/11 01:43:13;;;;;;;7.40;6.70;;;20.00;99.90;;;;;;4972363;28;20452;-70
2021/09/11 01:45:39;;;;;;;8.67;7.77;;;20.00;99.90;;;;;;4988618;28;20225;-70
2021/09/11 01:48:05;;;;;;;7.73;6.80;;;20.00;99.90;;;;;;4972688;28;20228;-71
2021/09/11 01:50:31;;;;;;;7.93;7.13;;;20.00;99.90;;;;;;4973114;28;20805;-70
2021/09/11 01:52:56;;;;;;;8.13;7.40;;;20.00;99.90;;;;;;4972406;28;20226;-71
2021/09/11 01:55:22;;;;;;;7.50;6.70;;;20.00;99.90;;;;;;4972988;28;20713;-70
2021/09/11 01:57:48;;;;;;;7.80;7.00;;;20.10;99.90;;;;;;4989341;28;20236;-70
2021/09/11 02:00:16;;;;;;;7.80;7.07;;;20.10;99.90;;;;;;4971350;28;20225;-70
2021/09/11 02:02:42;;;;;;;7.73;6.97;;;20.10;99.90;;;;;;4966444;28;20843;-70
2021/09/11 02:05:10;;;;;;;9.20;7.77;;;20.10;99.90;;;;;;4972400;28;20488;-71
2021/09/11 02:07:36;;;;;;;7.67;6.80;;;20.10;99.90;;;;;;4992902;28;20536;-71
2021/09/11 02:10:04;;;;;;;8.17;7.37;;;20.10;99.90;;;;;;4975568;28;20560;-71
2021/09/11 02:12:29;;;;;;;9.30;8.20;;;20.00;99.90;;;;;;4975644;28;20226;-70
2021/09/11 02:14:55;;;;;;;9.20;7.90;;;20.00;99.90;;;;;;4992032;28;20467;-70
2021/09/11 02:17:20;;;;;;;7.90;7.20;;;20.00;99.90;;;;;;4992885;28;20300;-70
2021/09/11 02:19:47;;;;;;;10.03;7.90;;;19.90;99.90;;;;;;4991909;28;20604;-69
2021/09/11 02:22:13;;;;;;;7.53;6.77;;;19.90;99.90;;;;;;4999544;28;20244;-70
2021/09/11 02:24:39;;;;;;;8.00;7.27;;;19.90;99.90;;;;;;5012216;28;20981;-69
2021/09/11 02:27:05;;;;;;;8.73;7.93;;;19.90;99.90;;;;;;5008106;28;20258;-70
2021/09/11 02:29:32;;;;;;;11.13;7.90;;;19.90;99.90;;;;;;4975941;28;20710;-71
2021/09/11 02:31:58;;;;;;;9.03;8.13;;;19.90;99.90;;;;;;4974683;28;20457;-70
2021/09/11 02:34:23;;;;;;;8.63;7.07;;;19.90;99.90;;;;;;4992105;28;20514;-71
2021/09/11 02:36:49;;;;;;;9.20;7.50;;;20.00;99.90;;;;;;5007591;28;20221;-72
2021/09/11 02:39:15;;;;;;;8.23;7.30;;;19.90;99.90;;;;;;5011523;28;20225;-72
2021/09/11 02:41:41;;;;;;;9.20;8.00;;;20.00;99.90;;;;;;4986145;28;20778;-70
2021/09/11 02:44:06;;;;;;;12.90;7.07;;;19.90;99.90;;;;;;4975452;28;20275;-70
2021/09/11 02:46:32;;;;;;;11.97;7.37;;;19.80;99.90;;;;;;4992229;28;20229;-70
2021/09/11 02:48:59;;;;;;;9.70;7.70;;;19.80;99.90;;;;;;4990894;28;20230;-70
2021/09/11 02:51:25;;;;;;;9.10;8.10;;;19.70;99.90;;;;;;4975445;28;20363;-70
2021/09/11 02:53:51;;;;;;;8.63;7.73;;;19.70;99.90;;;;;;4975324;28;20544;-70
2021/09/11 02:56:17;;;;;;;10.67;8.57;;;19.80;99.90;;;;;;4986108;28;20216;-70
2021/09/11 02:58:42;;;;;;;13.10;9.00;;;19.70;99.90;;;;;;4977246;28;20587;-69
2021/09/11 03:01:08;;;;;;;11.80;8.90;;;19.60;99.90;;;;;;4975139;28;20238;-70
2021/09/11 03:03:34;;;;;;;11.07;8.83;;;19.60;99.90;;;;;;4990844;28;20225;-71
2021/09/11 03:05:59;;;;;;;10.97;8.90;;;19.60;99.90;;;;;;4975138;28;20228;-70
2021/09/11 03:08:25;;;;;;;11.90;8.90;;;19.50;99.90;;;;;;4975430;28;20214;-70
2021/09/11 03:10:51;;;;;;;10.10;7.90;;;19.50;99.90;;;;;;4991303;28;20262;-70
2021/09/11 03:13:18;;;;;;;13.70;9.30;;;19.50;99.90;;;;;;4989257;28;20281;-70
2021/09/11 03:15:44;;;;;;;10.90;9.27;;;19.50;99.90;;;;;;4991746;28;20709;-70
2021/09/11 03:18:10;;;;;;;11.17;8.30;;;19.40;99.90;;;;;;4973136;28;20453;-70
2021/09/11 03:20:36;;;;;;;14.43;9.23;;;19.40;99.90;;;;;;4991594;28;20461;-70
2021/09/11 03:23:03;;;;;;;11.30;8.30;;;19.40;99.90;;;;;;4992822;28;20516;-69
2021/09/11 03:25:29;;;;;;;9.97;8.43;;;19.50;99.90;;;;;;4991270;28;20460;-70
2021/09/11 03:27:54;;;;;;;10.40;8.40;;;19.50;99.90;;;;;;4992229;28;20456;-71
2021/09/11 03:30:20;;;;;;;11.90;8.10;;;19.50;99.90;;;;;;4975112;28;20727;-70
2021/09/11 03:32:46;;;;;;;8.80;7.70;;;19.60;99.90;;;;;;4993184;28;20241;-70
2021/09/11 03:35:11;;;;;;;10.80;8.37;;;19.60;99.90;;;;;;4985828;28;20209;-70
2021/09/11 03:37:37;;;;;;;7.90;7.10;;;19.60;99.90;;;;;;4978526;28;20245;-70
2021/09/11 03:40:04;;;;;;;8.77;7.53;;;19.60;99.90;;;;;;4974552;28;20229;-70
2021/09/11 03:42:30;;;;;;;9.87;7.80;;;19.70;99.90;;;;;;4990634;28;20226;-70
2021/09/11 03:44:55;;;;;;;11.30;8.73;;;19.70;99.90;;;;;;4991255;28;20453;-71
2021/09/11 03:47:21;;;;;;;11.10;8.00;;;19.70;99.90;;;;;;4974674;28;20249;-71
2021/09/11 03:49:47;;;;;;;9.37;7.83;;;19.70;99.90;;;;;;4974610;28;20305;-70
2021/09/11 03:52:12;;;;;;;10.07;8.40;;;19.70;99.90;;;;;;4989242;28;20293;-70
2021/09/11 03:54:38;;;;;;;8.83;7.93;;;19.70;99.90;;;;;;4990903;28;20658;-70
2021/09/11 03:57:04;;;;;;;9.97;7.80;;;19.70;99.90;;;;;;5006847;28;20213;-70
2021/09/11 03:59:30;;;;;;;11.33;8.90;;;19.70;99.90;;;;;;4994006;28;20694;-70
2021/09/11 04:01:55;;;;;;;11.13;7.87;;;19.70;99.90;;;;;;5002201;28;20508;-70
2021/09/11 04:04:21;;;;;;;8.70;7.80;;;19.70;99.90;;;;;;4990306;28;20313;-70
2021/09/11 04:06:47;;;;;;;14.17;9.13;;;19.70;99.90;;;;;;4973968;28;20316;-71
2021/09/11 04:09:12;;;;;;;9.73;7.93;;;19.70;99.90;;;;;;4973064;28;20305;-71
2021/09/11 04:11:38;;;;;;;10.80;8.80;;;19.70;99.90;;;;;;4973550;28;20268;-72
2021/09/11 04:14:03;;;;;;;10.23;8.00;;;19.70;99.90;;;;;;4973335;28;20213;-70
2021/09/11 04:16:29;;;;;;;8.53;7.60;;;19.70;99.90;;;;;;4974448;28;20225;-70
2021/09/11 04:18:55;;;;;;;8.17;7.33;;;19.70;99.90;;;;;;4973123;28;20781;-70
2021/09/11 04:21:20;;;;;;;9.43;7.13;;;19.70;99.90;;;;;;4974808;28;20247;-70
2021/09/11 04:23:46;;;;;;;9.77;8.13;;;19.70;99.90;;;;;;4993283;28;20271;-70
2021/09/11 04:26:12;;;;;;;9.73;7.80;;;19.70;99.90;;;;;;5009390;28;20659;-70
2021/09/11 04:28:38;;;;;;;8.97;7.10;;;19.70;99.90;;;;;;4977460;28;20641;-70
2021/09/11 04:31:03;;;;;;;10.70;8.33;;;19.70;99.90;;;;;;4990913;28;20234;-70
2021/09/11 04:33:29;;;;;;;9.87;8.70;;;19.70;99.90;;;;;;4993004;28;20236;-70
2021/09/11 04:35:55;;;;;;;9.77;7.97;;;19.70;99.90;;;;;;4998882;28;20337;-70
2021/09/11 04:38:21;;;;;;;10.93;8.90;;;19.70;99.90;;;;;;4973436;28;20221;-70
2021/09/11 04:40:47;;;;;;;11.60;8.23;;;19.70;99.90;;;;;;4973910;28;20457;-70
2021/09/11 04:43:12;;;;;;;9.03;8.13;;;19.70;99.90;;;;;;4990214;28;20222;-70
2021/09/11 04:45:38;;;;;;;9.40;8.40;;;19.70;99.90;;;;;;4973982;28;20686;-70
2021/09/11 04:48:04;;;;;;;8.70;7.80;;;19.60;99.90;;;;;;4989081;28;20217;-71
2021/09/11 04:50:30;;;;;;;12.13;8.37;;;19.60;99.90;;;;;;4989698;28;20772;-71
2021/09/11 04:52:56;;;;;;;8.57;7.50;;;19.60;99.90;;;;;;4972504;28;20552;-70
2021/09/11 04:55:22;;;;;;;10.07;7.93;;;19.60;99.90;;;;;;4974570;28;20599;-71
2021/09/11 04:57:48;;;;;;;9.90;7.83;;;19.60;99.90;;;;;;4989636;28;20221;-70
2021/09/11 05:00:14;;;;;;;9.73;7.53;;;19.60;99.90;;;;;;4972364;28;20524;-70
2021/09/11 05:02:40;;;;;;;9.00;7.70;;;19.60;99.90;;;;;;4971865;28;20232;-70
2021/09/11 05:05:07;;;;;;;10.73;8.27;;;19.60;99.90;;;;;;4972576;28;20473;-70
2021/09/11 05:07:33;;;;;;;9.80;8.47;;;19.60;99.90;;;;;;4973656;28;20996;-71
2021/09/11 05:09:59;;;;;;;9.70;7.83;;;19.60;99.90;;;;;;4972126;28;20478;-70
2021/09/11 05:12:24;;;;;;;9.40;7.90;;;19.60;99.90;;;;;;4980564;28;20966;-70
2021/09/11 05:14:50;;;;;;;9.70;6.97;;;19.60;99.90;;;;;;4990537;28;20202;-71
2021/09/11 05:17:16;;;;;;;10.97;8.23;;;19.60;99.90;;;;;;4970884;28;20238;-70
2021/09/11 05:19:42;;;;;;;10.33;7.00;;;19.60;99.90;;;;;;4973406;28;20272;-71
2021/09/11 05:22:08;;;;;;;9.27;7.70;;;19.60;99.90;;;;;;4979629;28;20279;-71
2021/09/11 05:24:34;;;;;;;10.60;7.87;;;19.60;99.90;;;;;;4981370;28;20220;-70
2021/09/11 05:27:00;;;;;;;9.00;7.03;;;19.60;99.90;;;;;;4972681;28;20528;-70
2021/09/11 05:29:25;;;;;;;9.30;7.70;;;19.60;99.90;;;;;;4973422;28;20261;-70
2021/09/11 05:31:51;;;;;;;8.30;7.43;;;19.60;99.90;;;;;;4972426;28;20237;-71
2021/09/11 05:34:18;;;;;;;11.07;7.67;;;19.60;99.90;;;;;;4996142;28;20228;-70
2021/09/11 05:36:43;;;;;;;9.30;8.30;;;19.60;99.90;;;;;;4973248;28;20267;-70
2021/09/11 05:39:09;;;;;;;11.07;7.93;;;19.60;99.90;;;;;;4988412;28;20449;-70
2021/09/11 05:41:35;;;;;;;8.90;8.00;;;19.60;99.90;;;;;;4972495;28;20219;-70
2021/09/11 05:44:02;;;;;;;11.17;7.37;;;19.60;99.90;;;;;;4957189;28;20700;-70
2021/09/11 05:46:27;;;;;;;9.87;7.97;;;19.60;99.90;;;;;;4974797;28;20249;-70
2021/09/11 05:48:54;;;;;;;8.17;7.37;;;19.60;99.90;;;;;;4992615;28;20496;-71
2021/09/11 05:51:20;;;;;;;9.87;7.57;;;19.60;99.90;;;;;;4976716;28;20707;-70
2021/09/11 05:53:45;;;;;;;8.97;7.00;;;19.60;99.90;;;;;;4976279;28;20475;-70
2021/09/11 05:56:11;;;;;;;11.23;8.33;;;19.60;99.90;;;;;;4984920;28;20460;-70
2021/09/11 05:58:37;;;;;;;10.07;8.30;;;19.60;99.90;;;;;;4993285;28;20214;-70
2021/09/11 06:01:02;;;;;;;9.90;7.77;;;19.60;99.90;;;;;;4976270;28;20279;-70
2021/09/11 06:03:28;;;;;;;9.13;7.80;;;19.60;99.90;;;;;;4991620;28;20304;-71
2021/09/11 06:05:55;;;;;;;9.60;7.03;;;19.60;99.90;;;;;;4992383;28;20225;-70
2021/09/11 06:08:20;;;;;;;10.17;8.13;;;19.60;99.90;;;;;;4976898;28;20221;-70
2021/09/11 06:10:46;;;;;;;11.20;8.20;;;19.60;99.90;;;;;;4982440;28;20472;-69
2021/09/11 06:13:12;;;;;;;9.70;8.03;;;19.60;99.90;;;;;;4974593;28;20226;-70
2021/09/11 06:15:37;;;;;;;8.97;7.40;;;19.60;99.90;;;;;;4992016;28;20210;-70
2021/09/11 06:18:03;;;;;;;9.70;6.80;;;19.60;99.90;;;;;;4975691;28;20594;-70
2021/09/11 06:20:29;;;;;;;10.10;7.73;;;19.60;99.90;;;;;;4992351;28;20278;-70
2021/09/11 06:22:54;;;;;;;9.83;8.60;;;19.60;99.90;;;;;;4990948;28;20438;-70
2021/09/11 06:25:20;;;;;;;11.10;7.77;;;19.60;99.90;;;;;;4992222;28;20221;-70
2021/09/11 06:27:46;;;;;;;11.87;8.20;;;19.60;99.90;;;;;;4976290;28;20382;-69
2021/09/11 06:30:13;;;;;;;8.47;7.13;;;19.60;99.90;;;;;;4991375;28;20718;-70
2021/09/11 06:32:38;;;;;;;9.23;7.80;;;19.60;99.90;;;;;;4991926;28;20597;-70
2021/09/11 06:35:06;;;;;;;11.57;7.60;;;19.60;99.90;;;;;;5008945;28;20463;-71
2021/09/11 06:37:33;;;;;;;11.50;8.27;;;19.60;99.90;;;;;;4975266;28;20738;-70
2021/09/11 06:39:58;;;;;;;9.80;7.20;;;19.60;99.90;;;;;;5009915;28;20500;-70
2021/09/11 06:42:24;;;;;;;9.67;7.50;;;19.60;99.90;;;;;;4992782;28;20465;-70
2021/09/11 06:44:50;;;;;;;7.87;6.77;;;19.70;99.90;;;;;;4971868;28;20339;-71
2021/09/11 06:47:16;;;;;;;8.03;7.13;;;19.70;99.90;;;;;;4967362;28;20230;-70
2021/09/11 06:49:42;;;;;;;12.77;8.60;;;19.70;99.90;;;;;;4985389;28;20217;-70
2021/09/11 06:52:11;;;;;;;7.60;6.67;;;19.70;99.90;;;;;;4990858;28;20453;-70
2021/09/11 06:54:37;;;;;;;8.27;7.40;;;19.70;99.90;;;;;;4975816;28;20272;-70
2021/09/11 06:57:03;;;;;;;11.33;8.30;;;19.70;99.90;;;;;;4976043;28;20465;-70
2021/09/11 06:59:29;;;;;;;9.00;7.70;;;19.80;99.90;;;;;;4991573;28;20232;-70
2021/09/11 07:01:56;;;;;;;9.87;7.50;;;19.80;99.90;;;;;;4990870;28;20469;-71
2021/09/11 07:04:21;;;;;;;9.57;7.50;;;19.80;99.90;;;;;;4974926;28;20702;-70
2021/09/11 07:06:47;;;;;;;7.87;7.07;;;19.80;99.90;;;;;;4975168;28;20457;-70
2021/09/11 07:09:13;;;;;;;8.53;7.27;;;19.90;99.90;;;;;;4967348;28;20312;-70
2021/09/11 07:11:38;;;;;;;7.17;6.23;;;19.90;99.90;;;;;;4974482;28;20225;-71
2021/09/11 07:14:04;;;;;;;6.97;6.00;;;19.90;99.90;;;;;;4989983;28;20217;-70
2021/09/11 07:16:29;;;;;;;7.40;6.70;;;20.00;99.90;;;;;;4975180;28;20230;-70
2021/09/11 07:18:55;;;;;;;8.57;7.77;;;20.00;99.90;;;;;;4974574;28;20232;-70
2021/09/11 07:21:21;;;;;;;10.07;6.83;;;20.00;99.90;;;;;;4973656;28;20215;-72
2021/09/11 07:23:46;;;;;;;8.37;6.70;;;20.00;99.90;;;;;;4981063;28;20725;-71
2021/09/11 07:26:18;;;;;;;9.00;8.10;;;20.00;99.90;;;;;;4982602;28;20702;-70
2021/09/11 07:28:47;;;;;;;10.43;7.07;;;20.00;99.90;;;;;;4974983;28;20228;-70
2021/09/11 07:31:13;;;;;;;8.57;6.63;;;20.00;99.90;;;;;;4991321;28;20465;-72
2021/09/11 07:33:39;;;;;;;6.80;6.10;;;20.10;99.90;;;;;;4978952;28;20802;-70
2021/09/11 07:36:06;;;;;;;9.70;7.30;;;20.20;99.90;;;;;;4974285;28;20675;-70
2021/09/11 07:38:32;;;;;;;8.10;7.07;;;20.20;99.90;;;;;;4974269;28;20630;-70
2021/09/11 07:40:58;;;;;;;8.10;6.40;;;20.30;99.90;;;;;;4990170;28;20464;-70
2021/09/11 07:43:24;;;;;;;8.07;6.30;;;20.30;99.90;;;;;;4990619;28;20452;-71
2021/09/11 07:45:49;;;;;;;9.03;6.57;;;20.40;99.90;;;;;;4962682;28;20214;-70
2021/09/11 07:48:15;;;;;;;7.53;6.70;;;20.40;99.90;;;;;;4970335;28;20222;-70
2021/09/11 07:50:40;;;;;;;7.80;6.97;;;20.50;99.90;;;;;;4991862;28;20225;-70
2021/09/11 07:53:06;;;;;;;9.77;7.30;;;20.50;99.90;;;;;;4973469;28;20655;-70
2021/09/11 07:55:33;;;;;;;8.80;7.07;;;20.50;99.90;;;;;;4971354;28;20223;-71
2021/09/11 07:57:59;;;;;;;8.03;6.60;;;20.60;99.90;;;;;;4970097;28;20222;-70
2021/09/11 08:00:26;;;;;;;8.50;6.60;;;20.60;99.90;;;;;;4973829;28;20457;-70
2021/09/11 08:02:51;;;;;;;7.83;6.53;;;20.60;99.90;;;;;;4988941;28;20461;-70
2021/09/11 08:05:17;;;;;;;9.77;7.97;;;20.60;99.90;;;;;;4990441;28;20472;-70
2021/09/11 08:07:43;;;;;;;9.30;7.47;;;20.60;99.90;;;;;;4990623;28;20245;-70
2021/09/11 08:10:08;;;;;;;8.17;7.33;;;20.70;99.90;;;;;;4972832;28;20226;-71
2021/09/11 08:12:34;;;;;;;8.20;7.40;;;20.70;99.90;;;;;;4989611;28;20218;-70
2021/09/11 08:15:01;;;;;;;7.00;6.10;;;20.70;99.90;;;;;;4973517;28;20222;-71
2021/09/11 08:17:27;;;;;;;8.07;5.97;;;20.80;99.90;;;;;;4989498;28;20308;-70
2021/09/11 08:19:52;;;;;;;6.03;5.37;;;20.80;99.90;;;;;;4972640;28;21034;-71
2021/09/11 08:22:18;;;;;;;8.43;5.70;;;20.90;99.90;;;;;;4970821;28;20227;-72
2021/09/11 08:24:44;;;;;;;7.07;5.60;;;20.90;99.90;;;;;;4989140;28;20711;-70
2021/09/11 08:27:10;;;;;;;6.30;5.43;;;20.90;99.90;;;;;;4973079;28;20235;-71
2021/09/11 08:29:35;;;;;;;8.53;5.80;;;20.90;99.90;;;;;;4973697;28;21053;-71
2021/09/11 08:32:03;;;;;;;9.10;6.03;;;21.00;99.90;;;;;;4972443;28;20473;-71
2021/09/11 08:34:29;;;;;;;8.10;5.87;;;21.00;99.90;;;;;;4972812;28;20297;-71
2021/09/11 08:36:54;;;;;;;8.37;6.27;;;21.10;99.90;;;;;;4989385;28;20540;-71
2021/09/11 08:39:24;;;;;;;7.17;5.50;;;21.10;99.90;;;;;;4989381;28;20256;-70
2021/09/11 08:41:50;;;;;;;6.17;5.53;;;21.10;99.90;;;;;;4985811;28;20218;-71
2021/09/11 08:44:16;;;;;;;6.63;5.50;;;21.20;99.90;;;;;;4989003;28;20480;-72
2021/09/11 08:46:42;;;;;;;6.53;5.83;;;21.30;99.90;;;;;;5004514;28;20500;-72
2021/09/11 08:49:10;;;;;;;7.17;5.10;;;21.40;99.90;;;;;;4984435;28;20241;-72
2021/09/11 08:51:36;;;;;;;6.13;5.20;;;21.40;99.90;;;;;;4984376;28;20229;-72
2021/09/11 08:54:02;;;;;;;7.00;5.40;;;21.50;99.90;;;;;;4969372;28;20463;-72
2021/09/11 08:56:27;;;;;;;6.53;5.00;;;21.60;99.90;;;;;;4968174;28;20457;-73
2021/09/11 08:59:10;;;;;;;6.83;5.60;;;21.60;99.90;;;;;;4970423;28;20654;-72
2021/09/11 09:01:36;;;;;;;6.80;6.10;;;21.60;99.90;;;;;;4966206;28;20233;-72
2021/09/11 09:04:03;;;;;;;5.53;4.83;;;21.70;99.90;;;;;;4965832;28;20461;-72
2021/09/11 09:06:30;;;;;;;5.60;5.00;;;21.70;99.90;;;;;;4985035;28;20985;-71
2021/09/11 09:09:11;;;;;;;5.33;4.30;;;21.70;99.90;;;;;;4968427;28;20465;-72
2021/09/11 09:11:38;;;;;;;6.90;5.67;;;21.70;99.90;;;;;;4983857;28;20878;-72
2021/09/11 09:14:11;;;;;;;5.50;5.00;;;21.70;99.90;;;;;;4966706;28;20978;-72
2021/09/11 09:16:55;;;;;;;7.77;5.70;;;21.80;99.90;;;;;;4972528;28;20515;-73
2021/09/11 09:19:25;;;;;;;5.03;4.50;;;21.80;99.90;;;;;;4984276;28;20515;-72
2021/09/11 09:21:59;;;;;;;6.17;4.80;;;21.90;99.90;;;;;;4972013;28;21045;-72
2021/09/11 09:24:36;;;;;;;7.50;5.33;;;21.90;99.90;;;;;;4992080;28;20499;-71
2021/09/11 09:27:04;;;;;;;6.73;5.57;;;21.90;99.90;;;;;;4974128;28;20543;-72
2021/09/11 09:29:33;;;;;;;6.50;5.87;;;21.90;99.90;;;;;;4973660;28;20511;-71
2021/09/11 09:32:00;;;;;;;6.43;5.73;;;22.00;99.90;;;;;;4965147;28;20452;-72
2021/09/11 09:34:44;;;;;;;7.07;6.37;;;22.00;99.90;;;;;;4984358;28;20460;-71
2021/09/11 09:37:16;;;;;;;6.00;5.33;;;22.10;99.90;;;;;;4992573;28;20449;-72
2021/09/11 09:39:48;;;;;;;6.50;5.90;;;22.10;99.90;;;;;;4976892;28;20487;-70
2021/09/11 09:42:17;;;;;;;6.63;5.83;;;22.20;99.90;;;;;;4992967;28;20463;-72
2021/09/11 09:44:47;;;;;;;6.13;5.40;;;22.20;99.90;;;;;;4993343;28;20891;-70
2021/09/11 09:47:17;;;;;;;8.67;6.97;;;22.20;99.90;;;;;;4976343;28;20453;-71
2021/09/11 09:50:07;;;;;;;7.90;6.37;;;22.20;99.90;;;;;;4989941;28;20472;-71
2021/09/11 09:52:34;;;;;;;7.47;6.07;;;22.20;99.90;;;;;;4976756;28;20469;-72
2021/09/11 09:55:00;;;;;;;9.60;6.50;;;22.30;99.90;;;;;;4972966;28;20967;-71
2021/09/11 09:57:27;;;;;;;7.00;6.23;;;22.30;99.90;;;;;;4973258;28;20461;-72
2021/09/11 09:59:54;;;;;;;9.97;7.37;;;22.30;99.90;;;;;;4986585;28;20679;-72
2021/09/11 10:02:20;;;;;;;9.53;7.70;;;22.40;99.90;;;;;;4980176;28;20456;-71
2021/09/11 10:04:52;;;;;;;10.47;7.40;;;22.40;99.90;;;;;;4992885;28;20475;-73
2021/09/11 10:07:21;;;;;;;8.47;6.90;;;22.50;99.90;;;;;;4991228;28;20597;-70
2021/09/11 10:09:49;;;;;;;7.70;6.90;;;22.50;99.90;;;;;;4990833;28;20526;-71
2021/09/11 10:12:41;;;;;;;9.90;7.67;;;22.60;99.90;;;;;;4985520;28;20463;-71
2021/09/11 10:15:33;;;;;;;7.83;6.40;;;22.60;99.90;;;;;;4988190;28;20965;-71
2021/09/11 10:17:59;;;;;;;7.30;6.60;;;22.60;99.90;;;;;;4991473;28;20476;-72
2021/09/11 10:20:25;;;;;;;7.03;6.33;;;22.60;99.90;;;;;;4995032;28;20488;-72
2021/09/11 10:23:05;;;;;;;7.13;6.43;;;22.60;99.90;;;;;;4990449;28;20256;-71
2021/09/11 10:25:38;;;;;;;8.47;7.07;;;22.60;99.90;;;;;;4975614;28;20213;-72
2021/09/11 10:28:22;;;;;;;6.67;5.60;;;22.60;99.90;;;;;;4990946;28;20488;-71
2021/09/11 10:31:08;;;;;;;11.33;7.07;;;22.60;99.90;;;;;;4986087;28;20468;-72
2021/09/11 10:33:38;;;;;;;7.90;6.77;;;22.60;99.90;;;;;;4990004;28;20459;-72
2021/09/11 10:36:04;;;;;;;8.67;6.70;;;22.60;99.90;;;;;;4993261;28;20913;-71
2021/09/11 10:38:42;;;;;;;9.13;7.27;;;22.60;99.90;;;;;;4974593;28;20874;-72
2021/09/11 10:41:11;;;;;;;8.10;6.73;;;22.60;99.90;;;;;;4985505;28;20469;-72
2021/09/11 10:43:38;;;;;;;10.57;7.70;;;22.60;99.90;;;;;;4991724;28;20463;-71
2021/09/11 10:46:09;;;;;;;8.47;7.53;;;22.60;99.90;;;;;;4992570;28;20487;-71
2021/09/11 10:48:43;;;;;;;9.97;6.53;;;22.60;99.90;;;;;;4972473;28;20516;-72
2021/09/11 10:51:34;;;;;;;6.47;5.87;;;22.60;99.90;;;;;;4974653;28;20473;-71
2021/09/11 10:54:15;;;;;;;3.70;3.30;;;22.60;99.90;;;;;;4974488;28;20580;-71
2021/09/11 10:56:48;;;;;;;3.77;3.47;;;22.60;99.90;;;;;;4969753;28;20545;-71
2021/09/11 10:59:23;;;;;;;3.33;3.10;;;22.60;99.90;;;;;;4992512;28;21020;-72
2021/09/11 11:02:07;;;;;;;3.07;2.77;;;22.60;99.90;;;;;;4975183;28;20480;-71
2021/09/11 11:04:48;;;;;;;3.13;2.83;;;22.60;99.90;;;;;;4974098;28;20465;-72
2021/09/11 11:07:19;;;;;;;2.27;2.07;;;22.60;99.90;;;;;;4968765;28;20453;-71
2021/09/11 11:09:50;;;;;;;2.47;2.27;;;22.50;99.90;;;;;;4978203;28;20472;-72
2021/09/11 11:12:20;;;;;;;2.93;2.73;;;22.50;99.90;;;;;;4973498;28;20468;-71
2021/09/11 11:14:46;;;;;;;3.50;3.00;;;22.50;99.90;;;;;;4987524;28;20469;-72
2021/09/11 11:17:17;;;;;;;3.23;2.80;;;22.40;99.90;;;;;;4974446;28;20441;-71
2021/09/11 11:19:48;;;;;;;4.63;2.97;;;22.40;99.90;;;;;;4990473;28;20468;-72
2021/09/11 11:22:16;;;;;;;3.50;3.20;;;22.40;99.90;;;;;;4982815;28;20464;-72
2021/09/11 11:24:45;;;;;;;3.30;3.00;;;22.30;99.90;;;;;;4975184;28;20461;-72
2021/09/11 11:27:19;;;;;;;3.53;3.07;;;22.30;99.90;;;;;;4974345;28;20452;-73
2021/09/11 11:29:47;;;;;;;3.20;2.50;;;22.30;99.90;;;;;;4990412;28;20555;-72
2021/09/11 11:32:13;;;;;;;3.57;3.20;;;22.30;99.90;;;;;;4973912;28;20461;-72
2021/09/11 11:34:40;;;;;;;3.73;3.43;;;22.30;99.90;;;;;;4979796;28;20460;-72
2021/09/11 11:37:10;;;;;;;5.00;4.00;;;22.30;99.90;;;;;;4991568;28;20531;-72
2021/09/11 11:39:41;;;;;;;3.67;2.97;;;22.30;99.90;;;;;;4991255;28;20453;-73
2021/09/11 11:42:16;;;;;;;3.80;3.27;;;22.30;99.90;;;;;;4973708;28;20541;-72
2021/09/11 11:44:43;;;;;;;3.73;3.40;;;22.30;99.90;;;;;;4988362;28;20973;-72
2021/09/11 11:47:15;;;;;;;4.07;3.20;;;22.30;99.90;;;;;;4990954;28;20456;-74
2021/09/11 11:49:41;;;;;;;4.27;3.70;;;22.30;99.90;;;;;;4973943;28;20471;-72
2021/09/11 11:52:10;;;;;;;5.90;4.17;;;22.40;99.90;;;;;;4965754;28;20971;-72
2021/09/11 11:54:37;;;;;;;4.63;3.70;;;22.40;99.90;;;;;;4987155;28;20221;-73
2021/09/11 11:57:08;;;;;;;4.97;3.67;;;22.40;99.90;;;;;;4983298;28;20874;-73
2021/09/11 11:59:34;;;;;;;4.53;3.73;;;22.50;99.90;;;;;;4989757;28;20543;-72
2021/09/11 12:01:59;;;;;;;4.67;4.13;;;22.50;99.90;;;;;;4971790;28;20602;-72
2021/09/11 12:04:25;;;;;;;5.60;3.57;;;22.60;99.90;;;;;;4989501;28;20730;-72
2021/09/11 12:06:54;;;;;;;4.30;3.67;;;22.70;99.90;;;;;;4974113;28;20668;-73
2021/09/11 12:09:20;;;;;;;3.70;3.00;;;22.80;99.90;;;;;;4989163;28;20284;-73
2021/09/11 12:11:47;;;;;;;3.33;3.00;;;22.80;99.90;;;;;;4985224;28;20819;-72
2021/09/11 12:14:15;;;;;;;4.13;3.37;;;22.90;99.90;;;;;;4973015;28;20224;-71
2021/09/11 12:16:44;;;;;;;5.20;2.90;;;22.90;99.90;;;;;;4966671;28;20511;-72
2021/09/11 12:19:12;;;;;;;3.40;3.10;;;23.00;99.90;;;;;;4971979;28;20441;-73
2021/09/11 12:21:38;;;;;;;3.00;2.73;;;23.00;99.90;;;;;;4993248;28;20456;-73
2021/09/11 12:24:04;;;;;;;3.30;3.00;;;23.20;99.90;;;;;;4972197;28;20445;-73
2021/09/11 12:26:32;;;;;;;4.60;3.20;;;23.30;99.90;;;;;;4976891;28;20508;-73
2021/09/11 12:29:13;;;;;;;2.63;2.43;;;23.40;99.90;;;;;;4970318;28;20457;-73
2021/09/11 12:31:40;;;;;;;3.50;3.20;;;23.40;99.90;;;;;;4976907;28;20449;-73
2021/09/11 12:34:18;;;;;;;3.63;3.30;;;23.50;99.90;;;;;;4972480;28;20448;-72
2021/09/11 12:36:47;;;;;;;2.80;2.60;;;23.60;99.90;;;;;;4978313;28;20459;-73
2021/09/11 12:39:16;;;;;;;2.97;2.70;;;23.70;99.90;;;;;;4971319;28;20933;-73
2021/09/11 12:41:49;;;;;;;2.87;2.67;;;23.80;99.90;;;;;;4972548;28;20459;-72
2021/09/11 12:44:15;;;;;;;4.80;3.07;;;23.80;99.90;;;;;;4988859;28;20516;-72
2021/09/11 12:46:51;;;;;;;2.70;2.50;;;23.80;99.90;;;;;;4989320;28;20448;-72
2021/09/11 12:49:17;;;;;;;3.13;2.80;;;23.90;99.90;;;;;;4989085;28;20455;-72